createdAt,value
2022-07-31T00:00:29.503Z,42.29
2022-07-31T00:02:59.717Z,42.37
2022-07-31T00:05:28.629Z,42.35
2022-07-31T00:07:56.956Z,42.47
2022-07-31T00:10:25.569Z,42.45
2022-07-31T00:12:54.109Z,42.41
2022-07-31T00:15:22.915Z,42.55
2022-07-31T00:17:51.850Z,42.56
2022-07-31T00:20:22.384Z,42.53
2022-07-31T00:22:50.950Z,42.56
2022-07-31T00:25:20.059Z,42.49
2022-07-31T00:27:48.561Z,42.62
2022-07-31T00:30:17.544Z,42.77
2022-07-31T00:32:46.674Z,42.83
2022-07-31T00:35:17.433Z,42.91
2022-07-31T00:37:47.318Z,42.97
2022-07-31T00:40:17.988Z,42.94
2022-07-31T00:42:46.909Z,42.98
2022-07-31T00:45:15.221Z,42.91
2022-07-31T00:47:44.747Z,43.08
2022-07-31T00:50:13.857Z,43.02
2022-07-31T00:52:44.140Z,43.42
2022-07-31T00:55:13.868Z,43.22
2022-07-31T00:57:43.546Z,43.52
2022-07-31T01:00:14.779Z,43.71
2022-07-31T01:02:46.279Z,43.72
2022-07-31T01:05:18.759Z,43.86
2022-07-31T01:07:48.798Z,44.01
2022-07-31T01:10:44.231Z,44.18
2022-07-31T01:13:21.563Z,44.33
2022-07-31T01:15:51.641Z,44.35
2022-07-31T01:18:20.685Z,44.55
2022-07-31T01:20:52.068Z,44.85
2022-07-31T01:23:55.076Z,44.99
2022-07-31T01:26:51.755Z,44.89
2022-07-31T01:29:28.274Z,45.25
2022-07-31T01:32:03.576Z,45.60
2022-07-31T01:34:41.068Z,46.03
2022-07-31T01:37:16.848Z,45.91
2022-07-31T01:39:53.240Z,46.09
2022-07-31T01:42:24.280Z,46.26
2022-07-31T01:45:01.073Z,46.55
2022-07-31T01:47:32.702Z,46.55
2022-07-31T01:50:04.783Z,46.87
2022-07-31T01:52:35.456Z,46.90
2022-07-31T01:55:06.030Z,47.11
2022-07-31T01:57:37.109Z,46.78
2022-07-31T02:00:33.448Z,47.22
2022-07-31T02:03:09.290Z,47.47
2022-07-31T02:05:41.997Z,47.61
2022-07-31T02:08:13.624Z,47.79
2022-07-31T02:10:46.616Z,47.83
2022-07-31T02:13:17.835Z,47.92
2022-07-31T02:15:49.214Z,48.25
2022-07-31T02:18:21.824Z,48.41
2022-07-31T02:21:11.800Z,48.31
2022-07-31T02:23:40.570Z,48.61
2022-07-31T02:26:10.039Z,48.67
2022-07-31T02:28:42.219Z,48.85
2022-07-31T02:31:15.568Z,49.01
2022-07-31T02:33:49.188Z,49.17
2022-07-31T02:36:19.160Z,49.07
2022-07-31T02:38:48.732Z,49.25
2022-07-31T02:41:19.256Z,49.23
2022-07-31T02:43:49.319Z,49.38
2022-07-31T02:46:24.223Z,49.48
2022-07-31T02:48:53.891Z,49.66
2022-07-31T02:51:25.433Z,49.85
2022-07-31T02:53:55.701Z,50.15
2022-07-31T02:56:27.106Z,50.25
2022-07-31T02:58:55.769Z,50.61
2022-07-31T03:01:28.947Z,50.48
2022-07-31T03:03:58.033Z,50.77
2022-07-31T03:06:29.314Z,50.46
2022-07-31T03:08:57.713Z,50.43
2022-07-31T03:11:26.771Z,50.60
2022-07-31T03:13:58.260Z,50.69
2022-07-31T03:16:29.446Z,50.58
2022-07-31T03:19:02.191Z,50.52
2022-07-31T03:21:31.872Z,50.63
2022-07-31T03:24:01.733Z,50.56
2022-07-31T03:26:32.125Z,50.46
2022-07-31T03:29:02.124Z,50.47
2022-07-31T03:31:31.997Z,50.25
2022-07-31T03:34:00.338Z,50.01
2022-07-31T03:36:30.570Z,50.42
2022-07-31T03:38:59.577Z,50.25
2022-07-31T03:41:44.469Z,50.26
2022-07-31T03:44:13.254Z,50.37
2022-07-31T03:46:43.221Z,50.30
2022-07-31T03:49:11.888Z,50.07
2022-07-31T03:51:40.889Z,50.04
2022-07-31T03:54:09.345Z,50.25
2022-07-31T03:56:49.477Z,50.10
2022-07-31T03:59:20.427Z,49.90
2022-07-31T04:01:57.977Z,50.28
2022-07-31T04:04:39.111Z,49.86
2022-07-31T04:07:07.765Z,50.16
2022-07-31T04:09:36.334Z,50.18
2022-07-31T04:12:07.620Z,50.19
2022-07-31T04:14:36.272Z,50.54
2022-07-31T04:17:06.704Z,50.54
2022-07-31T04:19:35.202Z,50.26
2022-07-31T04:22:05.221Z,50.62
2022-07-31T04:24:35.005Z,50.53
2022-07-31T04:27:22.055Z,50.60
2022-07-31T04:29:51.100Z,50.82
2022-07-31T04:32:24.025Z,50.80
2022-07-31T04:34:56.122Z,50.71
2022-07-31T04:37:24.617Z,50.48
2022-07-31T04:39:53.147Z,50.57
2022-07-31T04:42:21.794Z,50.77
2022-07-31T04:44:50.377Z,50.49
2022-07-31T04:47:18.828Z,50.49
2022-07-31T04:49:52.410Z,50.51
2022-07-31T04:52:20.780Z,50.78
2022-07-31T04:54:51.272Z,50.71
2022-07-31T04:57:21.929Z,50.49
2022-07-31T04:59:58.985Z,50.68
2022-07-31T05:02:30.157Z,51.08
2022-07-31T05:05:02.412Z,51.18
2022-07-31T05:07:40.071Z,50.93
2022-07-31T05:10:34.211Z,51.12
2022-07-31T05:13:03.159Z,51.01
2022-07-31T05:15:33.103Z,51.00
2022-07-31T05:18:01.705Z,51.38
2022-07-31T05:20:50.603Z,51.13
2022-07-31T05:23:29.322Z,51.17
2022-07-31T05:26:10.964Z,51.07
2022-07-31T05:28:40.288Z,51.12
2022-07-31T05:31:10.885Z,51.19
2022-07-31T05:33:39.509Z,51.18
2022-07-31T05:36:09.972Z,51.18
2022-07-31T05:38:38.372Z,50.77
2022-07-31T05:41:33.300Z,50.70
2022-07-31T05:44:20.422Z,50.84
2022-07-31T05:49:17.261Z,50.88
2022-07-31T05:51:54.236Z,50.76
2022-07-31T05:54:23.152Z,50.52
2022-07-31T05:57:10.093Z,50.59
2022-07-31T05:59:43.276Z,50.54
2022-07-31T06:02:12.552Z,50.60
2022-07-31T06:04:58.701Z,50.62
2022-07-31T06:07:30.599Z,50.71
2022-07-31T06:09:58.993Z,50.83
2022-07-31T06:12:27.428Z,50.86
2022-07-31T06:14:55.888Z,50.78
2022-07-31T06:17:44.079Z,50.69
2022-07-31T06:20:29.015Z,50.54
2022-07-31T06:22:59.185Z,50.47
2022-07-31T06:25:35.087Z,50.43
2022-07-31T06:28:10.608Z,50.21
2022-07-31T06:30:41.309Z,50.07
2022-07-31T06:33:17.217Z,50.04
2022-07-31T06:35:58.237Z,50.11
2022-07-31T06:38:40.194Z,50.12
2022-07-31T06:41:47.617Z,50.00
2022-07-31T06:44:45.843Z,50.07
2022-07-31T06:47:41.132Z,49.91
2022-07-31T06:50:32.003Z,49.92
2022-07-31T06:53:13.651Z,49.65
2022-07-31T06:55:44.448Z,49.47
2022-07-31T06:58:13.340Z,49.46
2022-07-31T07:00:41.780Z,49.21
2022-07-31T07:03:10.200Z,49.18
2022-07-31T07:05:40.958Z,48.70
2022-07-31T07:08:11.201Z,48.81
2022-07-31T07:10:39.542Z,48.39
2022-07-31T07:13:45.829Z,48.70
2022-07-31T07:16:18.649Z,48.62
2022-07-31T07:18:47.039Z,48.46
2022-07-31T07:21:15.489Z,48.38
2022-07-31T07:23:44.456Z,48.30
2022-07-31T07:26:20.084Z,48.26
2022-07-31T07:28:50.221Z,48.39
2022-07-31T07:31:19.632Z,48.38
2022-07-31T07:33:48.897Z,47.84
2022-07-31T07:36:22.663Z,47.95
2022-07-31T07:39:02.496Z,47.62
2022-07-31T07:41:33.012Z,47.71
2022-07-31T07:44:03.668Z,47.21
2022-07-31T07:46:32.404Z,46.66
2022-07-31T07:49:06.676Z,46.54
2022-07-31T07:51:59.102Z,46.47
2022-07-31T07:54:42.820Z,46.00
2022-07-31T07:57:24.037Z,45.61
2022-07-31T08:00:11.836Z,45.26
2022-07-31T08:03:47.440Z,45.19
2022-07-31T08:05:41.661Z,44.68
2022-07-31T08:08:11.107Z,44.52
2022-07-31T08:10:58.253Z,43.43
2022-07-31T08:13:36.331Z,43.11
2022-07-31T08:16:27.193Z,42.29
2022-07-31T08:18:58.652Z,42.11
2022-07-31T08:21:27.700Z,41.61
2022-07-31T08:23:56.455Z,41.32
2022-07-31T08:26:28.194Z,41.04
2022-07-31T08:28:57.676Z,40.55
2022-07-31T08:31:30.056Z,40.24
2022-07-31T08:34:31.069Z,39.70
2022-07-31T08:37:51.802Z,39.33
2022-07-31T08:39:51.700Z,38.97
2022-07-31T08:42:20.299Z,39.16
2022-07-31T08:44:48.704Z,39.17
2022-07-31T08:47:23.534Z,39.09
2022-07-31T08:49:53.777Z,38.68
2022-07-31T08:52:24.941Z,38.30
2022-07-31T08:54:59.756Z,38.52
2022-07-31T08:57:29.060Z,38.38
2022-07-31T08:59:57.823Z,38.05
2022-07-31T09:02:27.493Z,37.49
2022-07-31T09:05:25.180Z,37.07
2022-07-31T09:07:55.788Z,36.22
2022-07-31T09:10:26.920Z,35.16
2022-07-31T09:12:56.688Z,34.13
2022-07-31T09:15:29.982Z,33.13
2022-07-31T09:18:02.455Z,32.85
2022-07-31T09:20:32.788Z,32.10
2022-07-31T09:23:08.639Z,32.09
2022-07-31T09:25:41.800Z,32.12
2022-07-31T09:28:10.172Z,32.21
2022-07-31T09:30:56.204Z,31.77
2022-07-31T09:33:52.492Z,31.90
2022-07-31T09:37:08.235Z,32.16
2022-07-31T09:39:59.775Z,31.90
2022-07-31T09:42:48.561Z,31.54
2022-07-31T09:45:29.238Z,31.91
2022-07-31T09:48:05.807Z,32.53
2022-07-31T09:50:36.524Z,32.27
2022-07-31T09:53:06.633Z,32.35
2022-07-31T09:55:36.558Z,32.46
2022-07-31T09:58:05.573Z,32.72
2022-07-31T10:00:43.275Z,32.47
2022-07-31T10:03:17.588Z,32.45
2022-07-31T10:05:48.779Z,32.40
2022-07-31T10:08:18.823Z,32.52
2022-07-31T10:11:20.472Z,32.29
2022-07-31T10:14:01.416Z,32.28
2022-07-31T10:16:37.284Z,32.32
2022-07-31T10:19:33.144Z,31.91
2022-07-31T10:22:24.029Z,32.43
2022-07-31T10:24:55.021Z,32.25
2022-07-31T10:27:23.775Z,32.71
2022-07-31T10:30:02.300Z,32.45
2022-07-31T10:32:30.971Z,32.63
2022-07-31T10:35:22.513Z,33.32
2022-07-31T10:38:12.532Z,33.53
2022-07-31T10:41:13.356Z,33.22
2022-07-31T10:43:49.004Z,33.65
2022-07-31T10:46:29.823Z,33.58
2022-07-31T10:49:43.841Z,33.88
2022-07-31T10:52:33.432Z,33.98
2022-07-31T10:55:22.193Z,34.36
2022-07-31T10:58:11.421Z,34.06
2022-07-31T11:00:52.815Z,34.49
2022-07-31T11:03:49.662Z,34.19
2022-07-31T11:06:41.390Z,34.15
2022-07-31T11:09:30.249Z,34.41
2022-07-31T11:12:31.875Z,34.08
2022-07-31T11:15:24.408Z,33.06
2022-07-31T11:18:26.473Z,32.48
2022-07-31T11:21:36.031Z,31.75
2022-07-31T11:24:03.053Z,31.66
2022-07-31T11:26:41.282Z,30.83
2022-07-31T11:29:59.620Z,31.01
2022-07-31T11:32:12.547Z,30.67
2022-07-31T11:34:48.280Z,30.16
2022-07-31T11:37:20.549Z,29.31
2022-07-31T11:39:51.616Z,28.73
2022-07-31T11:42:27.757Z,28.40
2022-07-31T11:45:11.321Z,28.06
2022-07-31T11:48:12.915Z,27.77
2022-07-31T11:50:32.327Z,27.90
2022-07-31T11:53:06.940Z,28.19
2022-07-31T11:55:47.398Z,28.61
2022-07-31T11:58:16.985Z,28.76
2022-07-31T12:00:52.485Z,29.07
2022-07-31T12:03:23.334Z,28.93
2022-07-31T12:05:54.047Z,28.33
2022-07-31T12:08:25.394Z,28.99
2022-07-31T12:10:54.959Z,29.27
2022-07-31T12:13:25.587Z,29.16
2022-07-31T12:16:01.444Z,30.07
2022-07-31T12:18:31.165Z,30.13
2022-07-31T12:21:01.772Z,29.39
2022-07-31T12:23:41.904Z,29.02
2022-07-31T12:26:14.120Z,28.42
2022-07-31T12:28:43.639Z,28.41
2022-07-31T12:31:13.747Z,28.75
2022-07-31T12:33:43.642Z,28.37
2022-07-31T12:36:16.989Z,27.88
2022-07-31T12:38:48.344Z,27.50
2022-07-31T12:41:18.082Z,26.98
2022-07-31T12:43:51.927Z,26.59
2022-07-31T12:46:24.219Z,25.86
2022-07-31T12:48:52.537Z,25.34
2022-07-31T12:51:45.942Z,25.10
2022-07-31T12:54:10.255Z,25.01
2022-07-31T12:56:39.545Z,24.69
2022-07-31T12:59:09.231Z,24.78
2022-07-31T13:01:39.246Z,24.67
2022-07-31T13:04:18.917Z,24.84
2022-07-31T13:06:52.122Z,24.70
2022-07-31T13:09:21.132Z,24.52
2022-07-31T13:11:53.220Z,24.75
2022-07-31T13:14:24.513Z,24.10
2022-07-31T13:16:55.569Z,23.33
2022-07-31T13:19:24.007Z,23.18
2022-07-31T13:21:52.338Z,22.86
2022-07-31T13:24:25.286Z,22.32
2022-07-31T13:26:53.776Z,22.10
2022-07-31T13:29:22.164Z,22.50
2022-07-31T13:31:54.051Z,22.77
2022-07-31T13:34:22.412Z,22.65
2022-07-31T13:36:50.704Z,22.16
2022-07-31T13:39:19.096Z,22.10
2022-07-31T13:41:47.420Z,22.02
2022-07-31T13:44:16.764Z,21.88
2022-07-31T13:46:45.119Z,21.80
2022-07-31T13:49:15.525Z,21.99
2022-07-31T13:51:44.064Z,22.06
2022-07-31T13:54:12.953Z,21.71
2022-07-31T13:56:43.519Z,21.23
2022-07-31T13:59:14.203Z,21.32
2022-07-31T14:02:03.222Z,20.64
2022-07-31T14:04:38.269Z,20.54
2022-07-31T14:07:09.092Z,20.44
2022-07-31T14:09:37.929Z,21.36
2022-07-31T14:12:07.552Z,21.26
2022-07-31T14:14:37.956Z,21.05
2022-07-31T14:17:06.265Z,20.74
2022-07-31T14:19:44.224Z,20.55
2022-07-31T14:22:14.845Z,20.10
2022-07-31T14:24:50.060Z,20.06
2022-07-31T14:27:20.832Z,19.81
2022-07-31T14:29:49.382Z,19.63
2022-07-31T14:32:19.134Z,19.79
2022-07-31T14:34:49.104Z,19.47
2022-07-31T14:37:17.390Z,19.06
2022-07-31T14:39:45.922Z,19.08
2022-07-31T14:42:14.486Z,18.88
2022-07-31T14:44:43.059Z,18.40
2022-07-31T14:47:12.439Z,18.42
2022-07-31T14:50:09.279Z,18.21
2022-07-31T14:52:31.973Z,18.53
2022-07-31T14:55:01.634Z,18.54
2022-07-31T14:57:31.392Z,18.44
2022-07-31T14:59:59.880Z,19.15
2022-07-31T15:02:28.347Z,19.87
2022-07-31T15:04:56.768Z,20.87
2022-07-31T15:07:46.341Z,20.98
2022-07-31T15:10:15.409Z,20.90
2022-07-31T15:12:43.849Z,20.97
2022-07-31T15:15:12.723Z,22.14
2022-07-31T15:17:41.037Z,22.08
2022-07-31T15:20:10.819Z,22.12
2022-07-31T15:22:39.156Z,21.90
2022-07-31T15:25:09.473Z,21.40
2022-07-31T15:27:39.140Z,21.49
2022-07-31T15:30:08.953Z,21.25
2022-07-31T15:32:39.847Z,21.76
2022-07-31T15:35:12.359Z,22.05
2022-07-31T15:37:44.128Z,22.56
2022-07-31T15:40:15.523Z,23.18
2022-07-31T15:42:48.993Z,23.03
2022-07-31T15:45:19.639Z,23.68
2022-07-31T15:47:49.465Z,23.63
2022-07-31T15:50:20.167Z,23.32
2022-07-31T15:52:49.360Z,22.29
2022-07-31T15:55:19.658Z,21.54
2022-07-31T15:57:49.348Z,20.34
2022-07-31T16:00:18.381Z,20.56
2022-07-31T16:02:46.665Z,20.21
2022-07-31T16:05:21.552Z,19.66
2022-07-31T16:08:31.637Z,19.48
2022-07-31T16:10:54.946Z,19.06
2022-07-31T16:13:26.237Z,19.00
2022-07-31T16:15:54.924Z,18.84
2022-07-31T16:18:23.326Z,19.14
2022-07-31T16:20:51.743Z,19.75
2022-07-31T16:23:20.211Z,20.50
2022-07-31T16:25:48.623Z,21.20
2022-07-31T16:28:16.934Z,21.61
2022-07-31T16:30:46.779Z,21.86
2022-07-31T16:33:15.149Z,22.25
2022-07-31T16:35:43.452Z,22.51
2022-07-31T16:38:11.784Z,22.78
2022-07-31T16:40:40.429Z,22.76
2022-07-31T16:43:47.652Z,21.75
2022-07-31T16:45:58.735Z,21.20
2022-07-31T16:48:27.015Z,21.36
2022-07-31T16:50:55.451Z,21.38
2022-07-31T16:54:10.637Z,20.84
2022-07-31T16:56:13.718Z,20.69
2022-07-31T16:58:44.163Z,20.66
2022-07-31T17:01:57.350Z,20.05
2022-07-31T17:04:04.686Z,20.67
2022-07-31T17:06:36.327Z,20.32
2022-07-31T17:09:16.161Z,20.58
2022-07-31T17:11:48.656Z,20.18
2022-07-31T17:14:18.123Z,20.84
2022-07-31T17:16:49.781Z,21.15
2022-07-31T17:19:42.419Z,22.16
2022-07-31T17:22:11.128Z,22.97
2022-07-31T17:24:41.415Z,23.33
2022-07-31T17:27:10.823Z,23.04
2022-07-31T17:29:39.650Z,23.29
2022-07-31T17:32:11.129Z,23.70
2022-07-31T17:34:40.267Z,23.80
2022-07-31T17:37:09.024Z,24.10
2022-07-31T17:39:37.896Z,24.09
2022-07-31T17:42:06.609Z,24.51
2022-07-31T17:44:37.748Z,24.60
2022-07-31T17:47:10.087Z,24.67
2022-07-31T17:49:38.823Z,25.39
2022-07-31T17:52:07.626Z,25.21
2022-07-31T17:54:36.060Z,25.68
2022-07-31T17:57:05.336Z,25.75
2022-07-31T17:59:33.733Z,25.84
2022-07-31T18:02:03.692Z,26.15
2022-07-31T18:04:37.964Z,26.34
2022-07-31T18:07:09.030Z,26.42
2022-07-31T18:09:37.533Z,26.75
2022-07-31T18:12:07.582Z,26.82
2022-07-31T18:14:38.251Z,26.67
2022-07-31T18:17:07.114Z,27.30
2022-07-31T18:19:36.865Z,27.16
2022-07-31T18:22:05.531Z,27.55
2022-07-31T18:24:34.164Z,27.32
2022-07-31T18:27:02.497Z,27.42
2022-07-31T18:29:30.928Z,28.06
2022-07-31T18:31:59.278Z,27.89
2022-07-31T18:34:27.657Z,28.05
2022-07-31T18:36:57.385Z,28.34
2022-07-31T18:39:26.070Z,28.21
2022-07-31T18:41:54.601Z,28.41
2022-07-31T18:44:23.114Z,28.66
2022-07-31T18:46:51.614Z,28.72
2022-07-31T18:51:00.948Z,29.08
2022-07-31T18:52:11.224Z,29.34
2022-07-31T18:54:40.289Z,29.46
2022-07-31T18:57:09.066Z,29.69
2022-07-31T18:59:38.351Z,29.73
2022-07-31T19:02:11.482Z,30.34
2022-07-31T19:04:40.811Z,30.19
2022-07-31T19:07:10.507Z,30.31
2022-07-31T19:09:39.158Z,30.53
2022-07-31T19:12:08.924Z,30.56
2022-07-31T19:14:39.898Z,30.64
2022-07-31T19:17:08.609Z,30.67
2022-07-31T19:19:52.714Z,30.98
2022-07-31T19:22:28.040Z,31.36
2022-07-31T19:24:56.375Z,31.61
2022-07-31T19:27:46.978Z,32.01
2022-07-31T19:30:14.772Z,32.35
2022-07-31T19:32:43.235Z,32.54
2022-07-31T19:35:11.917Z,32.79
2022-07-31T19:37:41.560Z,32.90
2022-07-31T19:40:11.565Z,33.32
2022-07-31T19:42:40.428Z,33.78
2022-07-31T19:45:09.874Z,34.00
2022-07-31T19:47:38.249Z,34.38
2022-07-31T19:50:07.970Z,34.62
2022-07-31T19:52:36.260Z,34.78
2022-07-31T19:55:07.615Z,35.02
2022-07-31T19:57:36.188Z,35.31
2022-07-31T20:00:05.650Z,35.33
2022-07-31T20:02:34.015Z,35.55
2022-07-31T20:05:02.821Z,35.95
2022-07-31T20:07:33.098Z,36.30
2022-07-31T20:10:02.096Z,36.46
2022-07-31T20:12:31.774Z,36.63
2022-07-31T20:15:00.557Z,37.03
2022-07-31T20:17:29.267Z,37.07
2022-07-31T20:20:12.627Z,37.47
2022-07-31T20:22:44.446Z,37.67
2022-07-31T20:25:19.977Z,38.00
2022-07-31T20:27:50.915Z,38.33
2022-07-31T20:30:21.975Z,38.59
2022-07-31T20:32:51.472Z,38.80
2022-07-31T20:35:32.843Z,38.99
2022-07-31T20:38:09.036Z,39.22
2022-07-31T20:40:52.903Z,39.37
2022-07-31T20:43:25.239Z,39.64
2022-07-31T20:45:54.441Z,39.89
2022-07-31T20:48:24.481Z,39.84
2022-07-31T20:50:53.790Z,40.26
2022-07-31T20:53:23.040Z,40.20
2022-07-31T20:55:51.457Z,40.30
2022-07-31T20:58:20.198Z,40.66
2022-07-31T21:00:50.642Z,40.69
2022-07-31T21:03:19.581Z,40.94
2022-07-31T21:05:48.486Z,41.22
2022-07-31T21:08:17.512Z,41.45
2022-07-31T21:10:46.248Z,41.37
2022-07-31T21:13:14.741Z,41.88
2022-07-31T21:15:45.311Z,42.00
2022-07-31T21:18:16.672Z,42.42
2022-07-31T21:20:50.123Z,42.55
2022-07-31T21:23:22.814Z,42.50
2022-07-31T21:25:52.468Z,43.04
2022-07-31T21:28:21.659Z,43.03
2022-07-31T21:30:50.533Z,43.08
2022-07-31T21:33:20.442Z,43.61
2022-07-31T21:35:49.448Z,43.53
2022-07-31T21:38:18.528Z,43.76
2022-07-31T21:40:48.243Z,44.31
2022-07-31T21:43:22.185Z,44.05
2022-07-31T21:45:57.552Z,44.12
2022-07-31T21:48:35.552Z,44.33
2022-07-31T21:51:04.792Z,44.43
2022-07-31T21:53:33.073Z,44.60
2022-07-31T21:56:03.748Z,44.86
2022-07-31T21:58:32.065Z,44.94
2022-07-31T22:01:00.501Z,45.02
2022-07-31T22:03:28.847Z,45.09
2022-07-31T22:06:15.956Z,45.46
2022-07-31T22:08:44.932Z,45.29
2022-07-31T22:11:13.341Z,45.90
2022-07-31T22:13:41.832Z,45.62
2022-07-31T22:16:10.358Z,45.75
2022-07-31T22:18:39.241Z,46.25
2022-07-31T22:21:09.932Z,46.32
2022-07-31T22:23:39.073Z,46.56
2022-07-31T22:26:08.287Z,46.53
2022-07-31T22:28:37.005Z,46.78
2022-07-31T22:31:05.932Z,47.15
2022-07-31T22:33:34.434Z,46.90
2022-07-31T22:36:07.057Z,46.96
2022-07-31T22:38:37.984Z,47.05
2022-07-31T22:41:06.636Z,47.16
2022-07-31T22:44:11.626Z,47.70
2022-07-31T22:46:23.782Z,47.48
2022-07-31T22:48:53.688Z,47.31
2022-07-31T22:51:22.198Z,47.74
2022-07-31T22:53:52.025Z,47.66
2022-07-31T22:56:20.844Z,47.89
2022-07-31T22:58:49.110Z,47.81
2022-07-31T23:01:17.500Z,47.36
2022-07-31T23:03:45.880Z,47.66
2022-07-31T23:06:30.867Z,47.36
2022-07-31T23:09:02.621Z,47.75
2022-07-31T23:11:31.147Z,47.57
2022-07-31T23:13:59.573Z,47.52
2022-07-31T23:16:28.121Z,47.40
2022-07-31T23:18:56.696Z,47.41
2022-07-31T23:21:25.546Z,47.67
2022-07-31T23:23:53.980Z,47.44
2022-07-31T23:26:26.188Z,47.74
2022-07-31T23:28:56.832Z,47.55
2022-07-31T23:31:25.721Z,47.90
2022-07-31T23:33:55.208Z,47.74
2022-07-31T23:36:23.956Z,48.02
2022-07-31T23:38:53.132Z,47.91
2022-07-31T23:41:36.755Z,47.89
2022-07-31T23:44:05.683Z,47.96
2022-07-31T23:46:40.429Z,48.45
2022-07-31T23:49:09.709Z,48.38
2022-07-31T23:51:38.172Z,48.64
2022-07-31T23:54:07.617Z,48.54
2022-07-31T23:56:37.228Z,48.81
2022-07-31T23:59:05.683Z,48.67
